City Of Port Allen — WDD9053 — position and weather

sailwx.info

Track history (hours):
 
Tides and Currents Weather Stations Pressure Air Temp Water Temp Dewpoint Dewpoint Depression Visibility Wind Speed Wind Dir Waves Ship Positions

City Of Port Allen

Owner: Ingram Barge Company LLC, Nashville, TN. More information available from US FCC via Universal Licensing System and Coast Guard Vessel Documentation Center.

Last reported at 2017-Sep-24 00:24 UTC. Time now 2017-Sep-24 05:15 UTC.
Position N 30°04' W 093°41'.

Length 23 m; draft 2.3 m.

Type: Towing. MMSI: 367306270.

Date/timePositionNaut miles runAvg speedWind from/ knotsBaromVisibWave heightAir tempDewpointWater temp
2017-Sep-24 00:24N 30°04' W 093°41'1 3.6
2017-Sep-24 00:00N 30°04' W 093°40'2 5.0
2017-Sep-23 23:31N 30°04' W 093°37'2 4.7
2017-Sep-23 23:00N 30°04' W 093°34'2 4.5
2017-Sep-23 22:30N 30°04' W 093°31'2 4.6
2017-Sep-23 22:01N 30°04' W 093°29'2 4.6
2017-Sep-23 21:31N 30°04' W 093°26'2 4.6
2017-Sep-23 21:01N 30°04' W 093°23'2 4.1
2017-Sep-23 20:30N 30°04' W 093°21'2 3.3
2017-Sep-23 20:00N 30°05' W 093°20'  
2017-Sep-19 19:47N 29°49' W 092°03'2 6.3
2017-Sep-19 19:30N 29°48' W 092°05'3 6.5
2017-Sep-19 19:00N 29°47' W 092°09'3 6.8
2017-Sep-19 18:30N 29°47' W 092°13'4 7.2
2017-Sep-19 18:00N 29°49' W 092°17'44 4.6
2017-Sep-19 08:28N 29°56' W 093°07'3 5.7
2017-Sep-19 08:01N 29°56' W 093°10'3 5.6
2017-Sep-19 07:30N 29°59' W 093°12'3 5.3
2017-Sep-19 07:00N 30°01' W 093°14'2 4.0
2017-Sep-19 06:30N 30°02' W 093°15'2 4.7
2017-Sep-19 06:01N 30°04' W 093°16'2 4.6
2017-Sep-19 05:30N 30°06' W 093°18'2 4.7
2017-Sep-19 05:01N 30°04' W 093°20'2 3.4
2017-Sep-19 04:31N 30°04' W 093°22'3 6.3
2017-Sep-19 04:01N 30°04' W 093°26'3 6.7
2017-Sep-19 03:30N 30°04' W 093°30'7 6.7
2017-Sep-19 02:29N 30°04' W 093°38'73 4.9
2017-Sep-18 11:30N 29°30' W 094°52'3 6.5
2017-Sep-18 11:01N 29°32' W 094°54'3 6.7
2017-Sep-18 10:30N 29°35' W 094°56'4 7.1
2017-Sep-18 10:01N 29°38' W 094°58'3 6.7
2017-Sep-18 09:31N 29°42' W 094°59'3 5.9
2017-Sep-18 09:01N 29°44' W 095°02'4 1.6
2017-Sep-18 06:44N 29°46' W 095°05'0 0.0
2017-Sep-18 06:19N 29°46' W 095°05'0 0.1
2017-Sep-18 03:11N 29°46' W 095°05'2 8.5
2017-Sep-18 02:59N 29°45' W 095°06'4 8.1
2017-Sep-18 02:30N 29°45' W 095°11'0 0.1
2017-Sep-18 01:12N 29°45' W 095°10'0 0.0
2017-Sep-18 00:53N 29°45' W 095°10'0 0.0
2017-Sep-17 23:08N 29°45' W 095°10'0 0.5
2017-Sep-17 22:55N 29°45' W 095°10'3 6.3
2017-Sep-17 22:29N 29°44' W 095°07'4 4.4
2017-Sep-17 21:35N 29°47' W 095°04'0 0.8
2017-Sep-17 21:09N 29°47' W 095°05'1 7.1
2017-Sep-17 20:59N 29°46' W 095°05'1 1.2
2017-Sep-17 20:19N 29°46' W 095°06'0 0.1
2017-Sep-17 19:48N 29°46' W 095°06'1 1.1
2017-Sep-17 19:20N 29°46' W 095°06'1 3.0
2017-Sep-17 19:00N 29°46' W 095°04'2 4.7
2017-Sep-17 18:30N 29°44' W 095°03'1 2.4
2017-Sep-17 18:00N 29°44' W 095°01'2 4.1
2017-Sep-17 17:30N 29°42' W 094°60'2 4.6
2017-Sep-17 17:01N 29°40' W 094°59'3 5.3
2017-Sep-17 16:30N 29°38' W 094°58'3 5.3
2017-Sep-17 16:01N 29°35' W 094°56'3 5.4
2017-Sep-17 15:30N 29°33' W 094°54'3 5.7
2017-Sep-17 15:00N 29°31' W 094°53'35 3.3
2017-Sep-17 04:26N 29°40' W 094°14'3 4.0
2017-Sep-17 03:42N 29°41' W 094°11'1 3.9
2017-Sep-17 03:28N 29°41' W 094°10'2 3.9
2017-Sep-17 02:57N 29°43' W 094°08'31 4.2
2017-Sep-16 19:36N 30°04' W 093°41'0 1.8
2017-Sep-16 19:21N 30°04' W 093°41'1 2.7
2017-Sep-16 19:00N 30°04' W 093°40'2 4.3
2017-Sep-16 18:30N 30°04' W 093°37'2 3.7
2017-Sep-16 18:00N 30°04' W 093°35'2 3.6
2017-Sep-16 17:30N 30°04' W 093°33'2 3.6
2017-Sep-16 17:01N 30°04' W 093°31'2 3.5
2017-Sep-16 16:31N 30°04' W 093°29'2 3.2
2017-Sep-16 16:01N 30°04' W 093°27'2 3.6
2017-Sep-16 15:31N 30°04' W 093°25'2 3.6
2017-Sep-16 15:01N 30°04' W 093°23'2 3.6
2017-Sep-16 14:30N 30°04' W 093°21'1 2.6
2017-Sep-16 14:01N 30°05' W 093°20'2 3.7
2017-Sep-16 13:30N 30°06' W 093°18'1 1.9
2017-Sep-16 13:00N 30°05' W 093°17'2 3.2
2017-Sep-16 12:30N 30°04' W 093°16'2 3.3
2017-Sep-16 12:01N 30°02' W 093°16'2 3.8
2017-Sep-16 11:31N 30°01' W 093°14'2 3.7
2017-Sep-16 11:01N 29°60' W 093°13'2 4.3
2017-Sep-16 10:30N 29°58' W 093°11'2 4.3
2017-Sep-16 10:01N 29°56' W 093°10'2 4.0
2017-Sep-16 09:30N 29°56' W 093°08'2 4.2
2017-Sep-16 09:01N 29°56' W 093°05'2 4.2
2017-Sep-16 08:30N 29°56' W 093°03'39 3.4
2017-Sep-15 20:55N 29°50' W 092°18'1 3.3
2017-Sep-15 20:30N 29°49' W 092°17'2 3.3
2017-Sep-15 20:00N 29°48' W 092°16'2 3.4
2017-Sep-15 19:31N 29°48' W 092°14'2 3.1
2017-Sep-15 19:00N 29°47' W 092°12'2 3.8
2017-Sep-15 18:30N 29°47' W 092°10'2 3.9
2017-Sep-15 18:00N 29°47' W 092°08'612.6
2017-Sep-15 17:30N 29°48' W 092°15'0 0.0
2017-Sep-15 03:40N 29°48' W 092°15'0 1.9
2017-Sep-15 03:30N 29°48' W 092°16'2 3.5
2017-Sep-15 03:00N 29°49' W 092°17'2 3.6
2017-Sep-15 02:29N 29°50' W 092°19'42 3.5
2017-Sep-14 14:25N 29°56' W 093°07'1 3.0
2017-Sep-14 14:00N 29°56' W 093°08'1 3.0
2017-Sep-14 13:31N 29°57' W 093°10'1 2.5
2017-Sep-14 12:56N 29°58' W 093°11'1 2.9
2017-Sep-14 12:30N 29°59' W 093°12'2 3.2
2017-Sep-14 12:01N 29°60' W 093°13'2 3.3
2017-Sep-14 11:31N 30°01' W 093°14'2 3.2
2017-Sep-14 11:01N 30°02' W 093°15'2 4.0
2017-Sep-14 10:31N 30°04' W 093°16'2 3.8
2017-Sep-14 10:01N 30°05' W 093°18'1 1.6
2017-Sep-14 09:29N 30°06' W 093°18'0 0.7
2017-Sep-14 09:00N 30°06' W 093°19'0 0.0
2017-Sep-14 08:30N 30°06' W 093°19'0 0.0
2017-Sep-14 08:00N 30°06' W 093°19'0 0.0
2017-Sep-14 07:30N 30°06' W 093°19'0 0.0
2017-Sep-14 07:01N 30°06' W 093°19'0 0.0
2017-Sep-14 06:31N 30°06' W 093°19'0 0.2
2017-Sep-14 06:00N 30°06' W 093°19'0 0.1
2017-Sep-14 05:30N 30°06' W 093°19'0 0.0
2017-Sep-14 05:01N 30°06' W 093°19'0 0.2
2017-Sep-14 04:31N 30°06' W 093°19'0 0.0
2017-Sep-14 04:00N 30°06' W 093°19'0 0.0
2017-Sep-14 03:30N 30°06' W 093°19'0 0.0
2017-Sep-14 03:00N 30°06' W 093°19'0 0.0
2017-Sep-14 02:30N 30°06' W 093°19'0 0.1
2017-Sep-14 02:00N 30°06' W 093°19'2 3.1
2017-Sep-14 01:30N 30°05' W 093°20'2 4.1
2017-Sep-14 01:00N 30°04' W 093°22'3 5.2
2017-Sep-14 00:30N 30°04' W 093°25'  
Track history (hours):
 
Tides and Currents Weather Stations Pressure Air Temp Water Temp Dewpoint Dewpoint Depression Visibility Wind Speed Wind Dir Waves Ship Positions

City Of Port Allen

Owner: Ingram Barge Company LLC, Nashville, TN. More information available from US FCC via Universal Licensing System and Coast Guard Vessel Documentation Center.

Last reported at 2017-Sep-24 00:24 UTC. Time now 2017-Sep-24 05:15 UTC.
Position N 30°04' W 093°41'.

Length 23 m; draft 2.3 m.

Type: Towing. MMSI: 367306270.

Date/timePositionNaut miles runAvg speedWind from/ knotsBaromVisibWave heightAir tempDewpointWater temp
2017-Sep-24 00:24N 30°04' W 093°41'1 3.6
2017-Sep-24 00:00N 30°04' W 093°40'2 5.0
2017-Sep-23 23:31N 30°04' W 093°37'2 4.7
2017-Sep-23 23:00N 30°04' W 093°34'2 4.5
2017-Sep-23 22:30N 30°04' W 093°31'2 4.6
2017-Sep-23 22:01N 30°04' W 093°29'2 4.6
2017-Sep-23 21:31N 30°04' W 093°26'2 4.6
2017-Sep-23 21:01N 30°04' W 093°23'2 4.1
2017-Sep-23 20:30N 30°04' W 093°21'2 3.3
2017-Sep-23 20:00N 30°05' W 093°20'  
2017-Sep-19 19:47N 29°49' W 092°03'2 6.3
2017-Sep-19 19:30N 29°48' W 092°05'3 6.5
2017-Sep-19 19:00N 29°47' W 092°09'3 6.8
2017-Sep-19 18:30N 29°47' W 092°13'4 7.2
2017-Sep-19 18:00N 29°49' W 092°17'44 4.6
2017-Sep-19 08:28N 29°56' W 093°07'3 5.7
2017-Sep-19 08:01N 29°56' W 093°10'3 5.6
2017-Sep-19 07:30N 29°59' W 093°12'3 5.3
2017-Sep-19 07:00N 30°01' W 093°14'2 4.0
2017-Sep-19 06:30N 30°02' W 093°15'2 4.7
2017-Sep-19 06:01N 30°04' W 093°16'2 4.6
2017-Sep-19 05:30N 30°06' W 093°18'2 4.7
2017-Sep-19 05:01N 30°04' W 093°20'2 3.4
2017-Sep-19 04:31N 30°04' W 093°22'3 6.3
2017-Sep-19 04:01N 30°04' W 093°26'3 6.7
2017-Sep-19 03:30N 30°04' W 093°30'7 6.7
2017-Sep-19 02:29N 30°04' W 093°38'73 4.9
2017-Sep-18 11:30N 29°30' W 094°52'3 6.5
2017-Sep-18 11:01N 29°32' W 094°54'3 6.7
2017-Sep-18 10:30N 29°35' W 094°56'4 7.1
2017-Sep-18 10:01N 29°38' W 094°58'3 6.7
2017-Sep-18 09:31N 29°42' W 094°59'3 5.9
2017-Sep-18 09:01N 29°44' W 095°02'4 1.6
2017-Sep-18 06:44N 29°46' W 095°05'0 0.0
2017-Sep-18 06:19N 29°46' W 095°05'0 0.1
2017-Sep-18 03:11N 29°46' W 095°05'2 8.5
2017-Sep-18 02:59N 29°45' W 095°06'4 8.1
2017-Sep-18 02:30N 29°45' W 095°11'0 0.1
2017-Sep-18 01:12N 29°45' W 095°10'0 0.0
2017-Sep-18 00:53N 29°45' W 095°10'0 0.0
2017-Sep-17 23:08N 29°45' W 095°10'0 0.5
2017-Sep-17 22:55N 29°45' W 095°10'3 6.3
2017-Sep-17 22:29N 29°44' W 095°07'4 4.4
2017-Sep-17 21:35N 29°47' W 095°04'0 0.8
2017-Sep-17 21:09N 29°47' W 095°05'1 7.1
2017-Sep-17 20:59N 29°46' W 095°05'1 1.2
2017-Sep-17 20:19N 29°46' W 095°06'0 0.1
2017-Sep-17 19:48N 29°46' W 095°06'1 1.1
2017-Sep-17 19:20N 29°46' W 095°06'1 3.0
2017-Sep-17 19:00N 29°46' W 095°04'2 4.7
2017-Sep-17 18:30N 29°44' W 095°03'1 2.4
2017-Sep-17 18:00N 29°44' W 095°01'2 4.1
2017-Sep-17 17:30N 29°42' W 094°60'2 4.6
2017-Sep-17 17:01N 29°40' W 094°59'3 5.3
2017-Sep-17 16:30N 29°38' W 094°58'3 5.3
2017-Sep-17 16:01N 29°35' W 094°56'3 5.4
2017-Sep-17 15:30N 29°33' W 094°54'3 5.7
2017-Sep-17 15:00N 29°31' W 094°53'35 3.3
2017-Sep-17 04:26N 29°40' W 094°14'3 4.0
2017-Sep-17 03:42N 29°41' W 094°11'1 3.9
2017-Sep-17 03:28N 29°41' W 094°10'2 3.9
2017-Sep-17 02:57N 29°43' W 094°08'31 4.2
2017-Sep-16 19:36N 30°04' W 093°41'0 1.8
2017-Sep-16 19:21N 30°04' W 093°41'1 2.7
2017-Sep-16 19:00N 30°04' W 093°40'2 4.3
2017-Sep-16 18:30N 30°04' W 093°37'2 3.7
2017-Sep-16 18:00N 30°04' W 093°35'2 3.6
2017-Sep-16 17:30N 30°04' W 093°33'2 3.6
2017-Sep-16 17:01N 30°04' W 093°31'2 3.5
2017-Sep-16 16:31N 30°04' W 093°29'2 3.2
2017-Sep-16 16:01N 30°04' W 093°27'2 3.6
2017-Sep-16 15:31N 30°04' W 093°25'2 3.6
2017-Sep-16 15:01N 30°04' W 093°23'2 3.6
2017-Sep-16 14:30N 30°04' W 093°21'1 2.6
2017-Sep-16 14:01N 30°05' W 093°20'2 3.7
2017-Sep-16 13:30N 30°06' W 093°18'1 1.9
2017-Sep-16 13:00N 30°05' W 093°17'2 3.2
2017-Sep-16 12:30N 30°04' W 093°16'2 3.3
2017-Sep-16 12:01N 30°02' W 093°16'2 3.8
2017-Sep-16 11:31N 30°01' W 093°14'2 3.7
2017-Sep-16 11:01N 29°60' W 093°13'2 4.3
2017-Sep-16 10:30N 29°58' W 093°11'2 4.3
2017-Sep-16 10:01N 29°56' W 093°10'2 4.0
2017-Sep-16 09:30N 29°56' W 093°08'2 4.2
2017-Sep-16 09:01N 29°56' W 093°05'2 4.2
2017-Sep-16 08:30N 29°56' W 093°03'39 3.4
2017-Sep-15 20:55N 29°50' W 092°18'1 3.3
2017-Sep-15 20:30N 29°49' W 092°17'2 3.3
2017-Sep-15 20:00N 29°48' W 092°16'2 3.4
2017-Sep-15 19:31N 29°48' W 092°14'2 3.1
2017-Sep-15 19:00N 29°47' W 092°12'2 3.8
2017-Sep-15 18:30N 29°47' W 092°10'2 3.9
2017-Sep-15 18:00N 29°47' W 092°08'612.6
2017-Sep-15 17:30N 29°48' W 092°15'0 0.0
2017-Sep-15 03:40N 29°48' W 092°15'0 1.9
2017-Sep-15 03:30N 29°48' W 092°16'2 3.5
2017-Sep-15 03:00N 29°49' W 092°17'2 3.6
2017-Sep-15 02:29N 29°50' W 092°19'42 3.5
2017-Sep-14 14:25N 29°56' W 093°07'1 3.0
2017-Sep-14 14:00N 29°56' W 093°08'1 3.0
2017-Sep-14 13:31N 29°57' W 093°10'1 2.5
2017-Sep-14 12:56N 29°58' W 093°11'1 2.9
2017-Sep-14 12:30N 29°59' W 093°12'2 3.2
2017-Sep-14 12:01N 29°60' W 093°13'2 3.3
2017-Sep-14 11:31N 30°01' W 093°14'2 3.2
2017-Sep-14 11:01N 30°02' W 093°15'2 4.0
2017-Sep-14 10:31N 30°04' W 093°16'2 3.8
2017-Sep-14 10:01N 30°05' W 093°18'1 1.6
2017-Sep-14 09:29N 30°06' W 093°18'0 0.7
2017-Sep-14 09:00N 30°06' W 093°19'0 0.0
2017-Sep-14 08:30N 30°06' W 093°19'0 0.0
2017-Sep-14 08:00N 30°06' W 093°19'0 0.0
2017-Sep-14 07:30N 30°06' W 093°19'0 0.0
2017-Sep-14 07:01N 30°06' W 093°19'0 0.0
2017-Sep-14 06:31N 30°06' W 093°19'0 0.2
2017-Sep-14 06:00N 30°06' W 093°19'0 0.1
2017-Sep-14 05:30N 30°06' W 093°19'0 0.0
2017-Sep-14 05:01N 30°06' W 093°19'0 0.2
2017-Sep-14 04:31N 30°06' W 093°19'0 0.0
2017-Sep-14 04:00N 30°06' W 093°19'0 0.0
2017-Sep-14 03:30N 30°06' W 093°19'0 0.0
2017-Sep-14 03:00N 30°06' W 093°19'0 0.0
2017-Sep-14 02:30N 30°06' W 093°19'0 0.1
2017-Sep-14 02:00N 30°06' W 093°19'2 3.1
2017-Sep-14 01:30N 30°05' W 093°20'2 4.1
2017-Sep-14 01:00N 30°04' W 093°22'3 5.2
2017-Sep-14 00:30N 30°04' W 093°25'  

Dump ship's entire track history